Time;durP1;ratioP1;P1;durP2;ratioP2;P2;SDS_P1;SDS_P2;PMS_P1;PMS_P2;Temp;Humidity;BMP_temperature;BMP_pressure;BME280_temperature;BME280_humidity;BME280_pressure;Samples;Min_cycle;Max_cycle;Signal;HPM_P1;HPM_P2
2023/10/18 00:00:23;;;;;;;9.97;6.90;;;7.30;29.20;;;;;;5088765;28;20764;-72
2023/10/18 00:02:49;;;;;;;8.30;5.72;;;7.20;29.50;;;;;;5082320;28;20423;-70
2023/10/18 00:05:20;;;;;;;8.60;5.60;;;7.30;29.80;;;;;;5088393;28;20402;-70
2023/10/18 00:07:46;;;;;;;8.23;5.07;;;7.30;31.10;;;;;;5088738;28;20394;-70
2023/10/18 00:10:12;;;;;;;8.05;5.10;;;7.30;31.80;;;;;;5085459;28;20942;-70
2023/10/18 00:12:39;;;;;;;10.60;5.43;;;7.30;31.30;;;;;;5088230;28;20398;-70
2023/10/18 00:15:06;;;;;;;9.20;5.75;;;7.30;31.40;;;;;;5087103;28;20438;-70
2023/10/18 00:17:32;;;;;;;9.43;5.90;;;7.30;31.20;;;;;;5087922;28;20907;-70
2023/10/18 00:19:57;;;;;;;11.82;6.53;;;7.40;32.70;;;;;;5079812;28;20402;-70
2023/10/18 00:22:23;;;;;;;11.05;7.40;;;7.30;32.30;;;;;;5088637;28;20499;-70
2023/10/18 00:24:49;;;;;;;11.37;8.20;;;7.30;32.40;;;;;;5088238;28;20410;-70
2023/10/18 00:27:14;;;;;;;12.90;8.70;;;7.30;32.80;;;;;;5112164;27;20402;-70
2023/10/18 00:29:43;;;;;;;11.83;8.93;;;7.30;33.50;;;;;;5086798;28;20878;-71
2023/10/18 00:32:09;;;;;;;15.13;9.90;;;7.30;33.40;;;;;;5088343;28;20410;-71
2023/10/18 00:34:35;;;;;;;13.52;10.30;;;7.30;33.60;;;;;;5088282;28;20482;-70
2023/10/18 00:37:00;;;;;;;13.10;9.23;;;7.30;34.10;;;;;;5088390;28;20489;-71
2023/10/18 00:39:32;;;;;;;13.80;10.00;;;7.30;34.30;;;;;;5087725;28;20410;-70
2023/10/18 00:44:42;;;;;;;14.13;9.77;;;7.40;35.10;;;;;;5087626;28;20394;-70
2023/10/18 00:47:10;;;;;;;14.90;9.93;;;7.30;34.20;;;;;;5086664;28;20398;-70
2023/10/18 00:49:36;;;;;;;14.15;9.70;;;7.30;34.80;;;;;;5087123;28;20454;-71
2023/10/18 00:52:01;;;;;;;14.30;9.83;;;7.30;35.30;;;;;;5087707;28;20437;-71
2023/10/18 00:54:29;;;;;;;14.63;9.38;;;7.30;36.00;;;;;;5087684;28;20495;-70
2023/10/18 00:56:55;;;;;;;14.85;9.35;;;7.30;36.30;;;;;;5087279;28;20402;-71
2023/10/18 00:59:21;;;;;;;14.38;9.73;;;7.30;37.20;;;;;;5088369;28;20491;-71
2023/10/18 01:01:58;;;;;;;14.00;9.33;;;7.30;37.90;;;;;;5087829;28;20444;-71
2023/10/18 01:04:26;;;;;;;14.95;9.95;;;7.30;39.20;;;;;;5081280;28;20421;-71
2023/10/18 01:06:51;;;;;;;16.50;10.32;;;7.30;39.00;;;;;;5081471;28;20417;-70
2023/10/18 01:09:20;;;;;;;15.60;9.73;;;7.30;39.40;;;;;;5086535;28;20398;-71
2023/10/18 01:11:46;;;;;;;15.60;9.52;;;7.30;41.20;;;;;;5087980;28;20768;-70
2023/10/18 01:14:17;;;;;;;15.90;9.40;;;7.30;41.10;;;;;;5088000;28;20413;-71
2023/10/18 01:16:44;;;;;;;13.93;9.02;;;7.30;41.90;;;;;;5087947;28;20406;-70
2023/10/18 01:19:14;;;;;;;13.07;8.52;;;7.30;41.90;;;;;;5087646;28;20410;-71
2023/10/18 01:21:45;;;;;;;15.77;9.10;;;7.30;42.10;;;;;;5087565;28;20811;-70
2023/10/18 01:24:14;;;;;;;14.65;8.70;;;7.30;41.50;;;;;;5087461;28;20745;-70
2023/10/18 01:26:40;;;;;;;13.77;9.10;;;7.30;41.80;;;;;;5088009;28;20451;-71
2023/10/18 01:29:09;;;;;;;14.15;9.35;;;7.30;42.10;;;;;;5085767;28;20967;-70
2023/10/18 01:31:36;;;;;;;13.52;9.10;;;7.30;43.20;;;;;;5087986;28;20510;-70
2023/10/18 01:34:05;;;;;;;14.07;9.03;;;7.30;43.30;;;;;;5087633;28;20414;-70
2023/10/18 01:36:32;;;;;;;16.60;8.50;;;7.30;43.30;;;;;;5087647;28;20485;-70
2023/10/18 01:38:58;;;;;;;15.18;8.20;;;7.30;43.70;;;;;;5087887;28;20417;-71
2023/10/18 01:41:34;;;;;;;12.23;7.90;;;7.30;44.20;;;;;;5087881;28;20408;-70
2023/10/18 01:44:07;;;;;;;11.27;7.70;;;7.20;43.80;;;;;;5085914;28;20745;-71
2023/10/18 01:46:34;;;;;;;12.25;7.47;;;7.30;43.90;;;;;;5080268;28;20497;-70
2023/10/18 01:49:01;;;;;;;12.75;7.65;;;7.30;44.40;;;;;;5069214;28;20414;-70
2023/10/18 01:51:28;;;;;;;12.23;8.10;;;7.30;44.20;;;;;;5069349;28;20486;-70
2023/10/18 01:54:01;;;;;;;11.98;7.80;;;7.30;45.50;;;;;;5090082;28;20413;-71
2023/10/18 01:56:26;;;;;;;9.13;6.72;;;7.30;44.40;;;;;;5089745;28;20911;-70
2023/10/18 01:58:53;;;;;;;9.23;6.53;;;7.30;44.60;;;;;;5091186;28;20455;-71
2023/10/18 02:01:19;;;;;;;12.15;6.97;;;7.20;44.70;;;;;;5091412;28;20405;-70
2023/10/18 02:03:47;;;;;;;9.23;6.70;;;7.20;44.60;;;;;;5083786;28;20406;-70
2023/10/18 02:06:14;;;;;;;10.75;7.10;;;7.20;45.70;;;;;;5089064;28;20479;-70
2023/10/18 02:08:41;;;;;;;11.52;7.50;;;7.30;45.10;;;;;;5091216;28;20413;-70
2023/10/18 02:11:08;;;;;;;11.57;7.63;;;7.30;45.60;;;;;;5090584;28;20984;-70
2023/10/18 02:13:38;;;;;;;11.57;7.35;;;7.30;45.90;;;;;;5090877;28;21021;-71
2023/10/18 02:16:09;;;;;;;11.10;7.85;;;7.20;46.10;;;;;;5084235;28;20422;-70
2023/10/18 02:18:35;;;;;;;11.27;7.82;;;7.20;46.30;;;;;;5091220;28;20398;-70
2023/10/18 02:21:02;;;;;;;12.52;9.35;;;7.20;47.00;;;;;;5090508;28;20406;-71
2023/10/18 02:23:35;;;;;;;13.15;8.93;;;7.30;46.90;;;;;;5090811;28;20398;-70
2023/10/18 02:29:11;;;;;;;19.43;15.83;;;7.30;47.10;;;;;;5068045;28;20441;-71
2023/10/18 02:31:40;;;;;;;17.70;15.05;;;7.30;46.30;;;;;;5089319;28;20464;-71
2023/10/18 02:34:06;;;;;;;18.63;16.58;;;7.30;46.20;;;;;;5090081;28;20410;-71
2023/10/18 02:36:40;;;;;;;19.23;16.60;;;7.30;46.10;;;;;;5090853;28;20812;-70
2023/10/18 02:39:07;;;;;;;24.33;21.23;;;7.20;45.60;;;;;;5090482;28;20408;-70
2023/10/18 02:41:36;;;;;;;26.33;23.58;;;7.20;46.40;;;;;;5081309;28;20497;-70
2023/10/18 02:44:07;;;;;;;27.87;24.97;;;7.20;46.50;;;;;;5090351;28;20485;-71
2023/10/18 02:46:33;;;;;;;31.10;26.63;;;7.20;46.60;;;;;;5090586;28;20973;-70
2023/10/18 02:49:00;;;;;;;30.92;27.25;;;7.20;46.60;;;;;;5089599;28;20410;-70
2023/10/18 02:51:28;;;;;;;29.80;26.60;;;7.10;46.50;;;;;;5090454;28;20475;-71
2023/10/18 02:54:10;;;;;;;30.02;26.05;;;7.10;47.10;;;;;;5089988;28;20927;-70
2023/10/18 02:56:37;;;;;;;30.95;27.05;;;7.10;48.00;;;;;;5090235;28;20404;-71
2023/10/18 02:59:07;;;;;;;31.33;27.33;;;7.10;47.40;;;;;;5089849;28;20402;-70
2023/10/18 03:01:40;;;;;;;29.33;26.23;;;7.00;47.60;;;;;;5090049;28;20481;-70
2023/10/18 03:04:09;;;;;;;24.77;22.10;;;7.00;48.10;;;;;;5089502;28;20429;-70
2023/10/18 03:06:37;;;;;;;22.67;19.40;;;7.00;47.80;;;;;;5090062;28;20414;-71
2023/10/18 03:09:05;;;;;;;18.35;14.45;;;7.00;49.00;;;;;;5089602;28;20411;-70
2023/10/18 03:11:33;;;;;;;16.70;12.45;;;7.00;48.90;;;;;;5089817;28;20425;-71
2023/10/18 03:14:01;;;;;;;14.05;10.82;;;7.00;49.20;;;;;;5090160;28;20775;-70
2023/10/18 03:18:56;;;;;;;12.30;9.60;;;7.00;50.20;;;;;;5089481;28;20458;-71
2023/10/18 03:21:32;;;;;;;14.18;9.95;;;7.10;50.10;;;;;;5089308;28;20772;-70
2023/10/18 03:23:58;;;;;;;13.73;9.20;;;7.00;49.80;;;;;;5083011;28;20410;-70
2023/10/18 03:26:33;;;;;;;12.98;9.48;;;7.10;49.60;;;;;;5089013;28;20443;-70
2023/10/18 03:29:11;;;;;;;11.85;8.65;;;7.00;49.50;;;;;;5089176;28;21014;-70
2023/10/18 03:31:48;;;;;;;12.68;8.90;;;7.00;49.60;;;;;;5089592;28;20433;-71
2023/10/18 03:34:22;;;;;;;11.07;7.83;;;7.00;49.70;;;;;;5089065;28;21042;-71
2023/10/18 03:36:54;;;;;;;12.95;8.88;;;7.00;49.40;;;;;;5089699;28;20405;-71
2023/10/18 03:39:25;;;;;;;13.25;8.77;;;7.00;50.00;;;;;;5088585;28;20488;-71
2023/10/18 03:41:53;;;;;;;12.88;9.10;;;7.00;50.40;;;;;;5083270;28;20402;-71
2023/10/18 03:44:26;;;;;;;13.48;8.95;;;7.10;50.30;;;;;;5089304;28;20437;-71
2023/10/18 03:47:03;;;;;;;14.00;9.15;;;7.10;49.60;;;;;;5088897;28;20398;-70
2023/10/18 03:51:57;;;;;;;13.65;9.50;;;7.10;49.80;;;;;;5089348;28;20402;-70
2023/10/18 03:54:27;;;;;;;13.52;9.40;;;7.10;50.40;;;;;;5089048;28;20721;-71
2023/10/18 03:56:54;;;;;;;14.52;9.57;;;7.10;50.60;;;;;;5089164;28;20434;-71
2023/10/18 03:59:21;;;;;;;13.00;9.80;;;7.00;50.70;;;;;;5088781;28;20409;-71
2023/10/18 04:02:15;;;;;;;14.65;10.20;;;7.00;51.00;;;;;;5088870;28;20408;-70
2023/10/18 04:04:57;;;;;;;15.45;10.27;;;7.00;50.40;;;;;;5088854;28;20416;-70
2023/10/18 04:07:24;;;;;;;14.65;10.65;;;7.00;50.30;;;;;;5088870;28;20401;-71
2023/10/18 04:09:53;;;;;;;17.02;12.13;;;7.00;50.00;;;;;;5088331;28;20428;-70
2023/10/18 04:12:22;;;;;;;18.98;14.50;;;7.00;52.00;;;;;;5088856;28;20398;-70
2023/10/18 04:14:56;;;;;;;22.83;17.40;;;7.00;51.10;;;;;;5088274;28;20442;-71
2023/10/18 04:20:07;;;;;;;23.48;18.08;;;7.00;49.20;;;;;;5084110;28;20926;-70
2023/10/18 04:22:33;;;;;;;24.30;17.80;;;7.00;48.90;;;;;;5088107;28;20398;-70
2023/10/18 04:24:58;;;;;;;22.10;18.83;;;6.90;48.40;;;;;;5088523;28;20775;-71
2023/10/18 04:27:24;;;;;;;22.27;17.50;;;6.90;48.40;;;;;;5087307;28;20410;-70
2023/10/18 04:29:55;;;;;;;24.33;19.75;;;6.90;47.80;;;;;;5088361;28;20426;-70
2023/10/18 04:32:23;;;;;;;24.52;19.33;;;6.80;47.70;;;;;;5087958;28;20406;-71
2023/10/18 04:34:48;;;;;;;25.63;20.60;;;6.80;48.40;;;;;;5087126;28;20402;-71
2023/10/18 04:37:14;;;;;;;27.10;21.27;;;6.80;48.20;;;;;;5080115;28;20810;-70
2023/10/18 04:39:40;;;;;;;27.13;22.97;;;6.70;47.90;;;;;;5088571;28;20414;-70
2023/10/18 04:42:16;;;;;;;29.15;23.42;;;6.70;48.90;;;;;;5078720;28;20521;-70
2023/10/18 04:44:47;;;;;;;30.30;23.60;;;6.60;49.70;;;;;;5088129;28;20741;-70
2023/10/18 04:47:17;;;;;;;28.55;22.63;;;6.70;49.80;;;;;;5086238;28;20504;-70
2023/10/18 04:50:00;;;;;;;31.07;23.27;;;6.60;49.20;;;;;;5070082;28;20421;-70
2023/10/18 04:52:40;;;;;;;28.30;22.10;;;6.60;49.70;;;;;;5083604;28;20416;-70
2023/10/18 04:55:11;;;;;;;28.27;21.33;;;6.60;50.70;;;;;;5087922;28;20397;-72
2023/10/18 04:57:38;;;;;;;27.33;20.88;;;6.60;50.80;;;;;;5083180;28;20415;-73
2023/10/18 05:00:24;;;;;;;26.13;19.83;;;6.60;50.50;;;;;;5085354;28;20417;-72
2023/10/18 05:02:51;;;;;;;27.88;20.35;;;6.60;50.80;;;;;;5087824;28;20968;-71
2023/10/18 05:05:17;;;;;;;26.67;20.08;;;6.50;51.00;;;;;;5087623;28;20941;-70
2023/10/18 05:07:47;;;;;;;29.00;22.17;;;6.50;51.40;;;;;;5087424;28;20406;-70
2023/10/18 05:10:17;;;;;;;31.67;23.40;;;6.50;51.40;;;;;;5085695;28;20441;-71
2023/10/18 05:15:21;;;;;;;31.50;24.05;;;6.40;51.60;;;;;;5085735;28;20409;-71
2023/10/18 05:17:49;;;;;;;32.85;24.23;;;6.40;51.90;;;;;;5083762;28;20471;-71
2023/10/18 05:20:21;;;;;;;33.67;23.83;;;6.40;52.80;;;;;;5087006;28;20453;-71
2023/10/18 05:22:50;;;;;;;31.52;22.80;;;6.40;53.30;;;;;;5086652;28;20412;-71
2023/10/18 05:27:59;;;;;;;31.25;21.38;;;6.40;54.60;;;;;;5089048;28;20457;-71
2023/10/18 05:43:46;;;;;;;29.30;19.88;;;6.50;54.80;;;;;;5091286;28;20453;-70
2023/10/18 05:46:11;;;;;;;24.13;18.63;;;6.50;55.10;;;;;;5078317;28;20849;-70
2023/10/18 05:48:41;;;;;;;28.15;19.42;;;6.50;54.90;;;;;;5093073;28;20480;-71
2023/10/18 05:53:51;;;;;;;28.80;19.83;;;6.50;54.30;;;;;;5090234;28;20487;-71
2023/10/18 05:56:22;;;;;;;26.67;19.92;;;6.50;54.10;;;;;;5091468;28;20414;-71
2023/10/18 05:59:15;;;;;;;25.67;19.73;;;6.60;54.00;;;;;;5091157;28;20449;-71
2023/10/18 06:01:33;;;;;;;28.08;19.95;;;6.60;54.20;;;;;;5087802;28;21435;-71
2023/10/18 06:03:59;;;;;;;27.23;20.35;;;6.60;54.00;;;;;;5091034;28;20817;-71
2023/10/18 06:06:24;;;;;;;28.60;21.13;;;6.50;53.50;;;;;;5091214;28;20490;-71
2023/10/18 06:08:50;;;;;;;32.13;20.85;;;6.50;53.30;;;;;;5123854;27;20776;-71
2023/10/18 06:11:19;;;;;;;31.87;21.83;;;6.50;53.60;;;;;;5084522;28;20446;-71
2023/10/18 06:13:45;;;;;;;31.48;22.10;;;6.50;53.50;;;;;;5090910;28;20526;-71
2023/10/18 06:16:20;;;;;;;34.13;22.83;;;6.50;54.20;;;;;;5090697;28;20393;-71
2023/10/18 06:18:49;;;;;;;35.08;22.70;;;6.50;54.20;;;;;;5090818;28;20459;-71
2023/10/18 06:21:18;;;;;;;33.20;23.00;;;6.50;54.00;;;;;;5089175;28;20497;-71
2023/10/18 06:23:55;;;;;;;34.40;22.48;;;6.50;54.70;;;;;;5089879;28;20406;-71
2023/10/18 06:26:28;;;;;;;32.70;22.43;;;6.50;54.50;;;;;;5089053;28;20401;-71
2023/10/18 06:29:01;;;;;;;31.98;21.65;;;6.50;55.10;;;;;;5089473;28;20455;-71
2023/10/18 06:31:28;;;;;;;27.73;20.55;;;6.50;54.90;;;;;;5089339;28;20495;-71
2023/10/18 06:33:57;;;;;;;29.17;20.23;;;6.60;55.70;;;;;;5089481;28;20963;-71
2023/10/18 06:36:24;;;;;;;29.00;19.60;;;6.60;55.70;;;;;;5087850;28;20409;-71
2023/10/18 06:38:53;;;;;;;26.83;18.65;;;6.60;54.60;;;;;;5089474;28;20416;-71
2023/10/18 06:41:19;;;;;;;26.75;19.17;;;6.60;55.40;;;;;;5089231;28;20432;-71
2023/10/18 06:43:49;;;;;;;26.33;19.40;;;6.60;55.40;;;;;;5089169;28;21132;-71
2023/10/18 06:46:25;;;;;;;27.30;19.03;;;6.70;55.60;;;;;;5089238;28;20405;-71
2023/10/18 06:48:51;;;;;;;29.27;20.08;;;6.70;55.10;;;;;;5089004;28;20403;-71
2023/10/18 06:51:17;;;;;;;28.15;19.35;;;6.70;56.00;;;;;;5088652;28;20903;-71
2023/10/18 06:53:53;;;;;;;28.40;20.27;;;6.70;54.90;;;;;;5089343;28;20410;-71
2023/10/18 06:56:21;;;;;;;27.75;19.98;;;6.70;55.10;;;;;;5088944;28;20409;-71
2023/10/18 06:58:46;;;;;;;24.02;18.77;;;6.80;54.70;;;;;;5088197;28;20413;-71
2023/10/18 07:01:19;;;;;;;29.35;20.55;;;6.80;54.20;;;;;;5071156;28;20771;-71
2023/10/18 07:03:46;;;;;;;30.73;20.80;;;6.90;54.20;;;;;;5084319;28;20394;-71
2023/10/18 07:06:35;;;;;;;28.45;21.10;;;6.90;54.00;;;;;;5080741;28;20924;-71
2023/10/18 07:09:08;;;;;;;27.25;20.25;;;6.90;53.40;;;;;;5087518;28;20485;-71
2023/10/18 07:11:37;;;;;;;27.85;20.77;;;7.00;53.20;;;;;;5088195;28;20473;-71
2023/10/18 07:14:04;;;;;;;26.25;19.30;;;7.00;52.40;;;;;;5088316;28;20424;-71
2023/10/18 07:19:47;;;;;;;24.53;18.00;;;7.00;52.30;;;;;;5074665;28;20411;-71
2023/10/18 07:21:48;;;;;;;24.43;17.37;;;7.00;51.40;;;;;;5018587;28;1767466;-71
2023/10/18 07:24:17;;;;;;;22.65;16.30;;;7.10;51.50;;;;;;5122839;27;20410;-72
2023/10/18 07:26:43;;;;;;;21.38;15.20;;;7.10;51.20;;;;;;5089583;28;20408;-71
2023/10/18 07:29:09;;;;;;;22.10;15.60;;;7.20;49.90;;;;;;5089465;28;20398;-71
2023/10/18 07:31:38;;;;;;;19.80;14.30;;;7.20;48.90;;;;;;5089678;28;20429;-71
2023/10/18 07:34:17;;;;;;;18.45;13.18;;;7.30;48.20;;;;;;5089228;28;20895;-71
2023/10/18 07:36:44;;;;;;;17.48;13.45;;;7.30;45.80;;;;;;5089763;28;20410;-71
2023/10/18 07:39:11;;;;;;;18.80;13.13;;;7.40;45.50;;;;;;5088711;28;20451;-71
2023/10/18 07:41:38;;;;;;;18.95;12.85;;;7.40;44.70;;;;;;5089777;28;20481;-71
2023/10/18 07:44:07;;;;;;;17.37;12.93;;;7.50;43.50;;;;;;5089121;28;20891;-71
2023/10/18 07:46:34;;;;;;;17.77;13.40;;;7.50;42.80;;;;;;5089361;28;20406;-71
2023/10/18 07:49:04;;;;;;;17.07;13.03;;;7.50;41.70;;;;;;5089029;28;20393;-71
2023/10/18 07:51:31;;;;;;;17.48;13.10;;;7.60;40.50;;;;;;5081965;28;20950;-71
2023/10/18 07:53:57;;;;;;;19.30;13.27;;;7.60;40.10;;;;;;5087569;28;20406;-71
2023/10/18 07:56:29;;;;;;;22.00;14.63;;;7.70;40.10;;;;;;5089409;28;21518;-71
2023/10/18 08:02:07;;;;;;;18.00;14.10;;;7.80;37.30;;;;;;5086193;28;20467;-71
2023/10/18 08:04:36;;;;;;;20.08;14.35;;;7.90;36.60;;;;;;5083063;28;20489;-71
2023/10/18 08:07:04;;;;;;;18.20;14.18;;;7.90;35.30;;;;;;5083967;28;20936;-71
2023/10/18 08:09:30;;;;;;;18.70;13.40;;;7.90;33.30;;;;;;5089355;28;20828;-71
2023/10/18 08:11:56;;;;;;;17.23;13.05;;;8.00;32.40;;;;;;5085147;28;20501;-71
2023/10/18 08:14:24;;;;;;;16.55;12.45;;;8.10;31.70;;;;;;5084144;28;20394;-71
2023/10/18 08:16:56;;;;;;;18.83;13.88;;;8.10;30.80;;;;;;5088827;28;20486;-71
2023/10/18 08:19:25;;;;;;;17.88;14.45;;;8.20;29.50;;;;;;5088287;28;20401;-71
2023/10/18 08:24:41;;;;;;;24.30;19.15;;;8.30;28.50;;;;;;5088545;28;20416;-71
2023/10/18 08:27:09;;;;;;;22.33;19.38;;;8.30;28.20;;;;;;5088630;28;20397;-71
2023/10/18 08:29:38;;;;;;;24.10;18.85;;;8.40;28.30;;;;;;5088300;28;20395;-71
2023/10/18 08:32:18;;;;;;;23.92;18.77;;;8.50;27.30;;;;;;5087965;28;20440;-71
2023/10/18 08:34:45;;;;;;;20.30;15.32;;;8.50;26.80;;;;;;5076572;28;20406;-71
2023/10/18 08:37:14;;;;;;;17.15;12.57;;;8.60;25.70;;;;;;5088362;28;20455;-71
2023/10/18 08:39:55;;;;;;;16.50;11.32;;;8.60;24.80;;;;;;5088281;28;20416;-71
2023/10/18 08:42:30;;;;;;;13.05;10.07;;;8.70;22.70;;;;;;5086890;28;20422;-71
2023/10/18 08:44:56;;;;;;;15.07;10.70;;;8.80;22.90;;;;;;5088306;28;20764;-71
2023/10/18 08:47:29;;;;;;;13.90;10.43;;;8.80;23.30;;;;;;5087847;28;20398;-71
2023/10/18 08:49:56;;;;;;;15.90;10.33;;;8.80;22.10;;;;;;5104306;28;20430;-71
2023/10/18 08:52:28;;;;;;;14.75;10.88;;;8.90;21.10;;;;;;5087274;28;20406;-72
2023/10/18 08:54:55;;;;;;;18.48;11.20;;;9.00;21.70;;;;;;5087969;28;20465;-71
2023/10/18 08:57:36;;;;;;;13.90;10.55;;;9.20;24.70;;;;;;5088023;28;20394;-71
2023/10/18 09:00:48;;;;;;;12.75;10.23;;;9.40;22.40;;;;;;5087992;28;20438;-72
2023/10/18 09:02:53;;;;;;;13.75;9.93;;;9.60;16.30;;;;;;5087801;28;20413;-71
2023/10/18 09:05:23;;;;;;;13.77;9.90;;;9.90;13.70;;;;;;5079238;28;20434;-72
2023/10/18 09:08:03;;;;;;;11.98;9.75;;;10.10;9.60;;;;;;5088167;28;20439;-72
2023/10/18 09:18:24;;;;;;;13.80;10.43;;;10.50;1.00;;;;;;5087036;28;20413;-72
2023/10/18 09:20:51;;;;;;;11.40;9.52;;;10.60;1.00;;;;;;5087335;28;20413;-72
2023/10/18 09:23:20;;;;;;;15.27;9.88;;;10.60;1.00;;;;;;5086301;28;20444;-71
2023/10/18 09:25:48;;;;;;;12.82;10.10;;;10.70;1.00;;;;;;5086826;28;20414;-71
2023/10/18 09:28:20;;;;;;;13.43;9.73;;;10.70;1.00;;;;;;5087522;28;20412;-71
2023/10/18 09:30:45;;;;;;;12.13;9.63;;;10.80;1.00;;;;;;5087577;28;20478;-71
2023/10/18 09:33:13;;;;;;;11.63;9.37;;;10.90;1.00;;;;;;5087651;28;20406;-71
2023/10/18 09:35:46;;;;;;;11.40;8.85;;;10.90;1.00;;;;;;5087440;28;20934;-72
2023/10/18 09:38:12;;;;;;;11.70;8.68;;;11.00;1.00;;;;;;5087664;28;20402;-71
2023/10/18 09:40:40;;;;;;;12.63;9.30;;;11.00;1.00;;;;;;5087697;28;20415;-72
2023/10/18 09:43:06;;;;;;;13.27;8.98;;;11.10;1.00;;;;;;5086017;28;20414;-71
2023/10/18 09:45:33;;;;;;;10.13;8.53;;;11.20;1.00;;;;;;5086898;28;20737;-71
2023/10/18 09:48:00;;;;;;;12.38;9.93;;;11.20;1.00;;;;;;5087371;28;20406;-71
2023/10/18 09:50:34;;;;;;;11.88;9.32;;;11.30;1.00;;;;;;5087267;28;20434;-72
2023/10/18 09:53:01;;;;;;;11.75;9.02;;;11.40;1.00;;;;;;5081921;28;20471;-72
2023/10/18 09:55:28;;;;;;;11.27;8.87;;;11.60;1.00;;;;;;5086722;28;20512;-72
2023/10/18 09:58:04;;;;;;;9.65;8.15;;;11.80;1.00;;;;;;5087493;28;20402;-72
2023/10/18 10:00:33;;;;;;;10.45;8.80;;;12.00;1.00;;;;;;5082561;28;20871;-72
2023/10/18 10:02:59;;;;;;;11.10;8.98;;;12.20;1.00;;;;;;5087390;28;20429;-72
2023/10/18 10:05:25;;;;;;;11.50;8.75;;;12.40;1.00;;;;;;5086992;28;20911;-72
2023/10/18 10:07:56;;;;;;;10.00;8.23;;;12.60;1.00;;;;;;5086902;28;20485;-72
2023/10/18 10:10:43;;;;;;;11.60;8.95;;;12.70;1.00;;;;;;5087046;28;20438;-72
2023/10/18 10:13:19;;;;;;;11.77;8.75;;;12.80;1.00;;;;;;5087208;28;20923;-72
2023/10/18 10:16:03;;;;;;;15.05;8.90;;;12.80;1.00;;;;;;5083212;28;20418;-72
2023/10/18 10:18:32;;;;;;;9.93;8.17;;;13.00;1.00;;;;;;5086133;28;20424;-72
2023/10/18 10:21:03;;;;;;;10.40;8.68;;;13.00;1.00;;;;;;5090116;28;20414;-72
2023/10/18 10:23:32;;;;;;;10.13;8.52;;;13.00;1.00;;;;;;5090915;28;20429;-72
2023/10/18 10:26:13;;;;;;;10.33;8.40;;;13.00;1.00;;;;;;5090924;28;20451;-72
2023/10/18 10:31:58;;;;;;;10.98;8.32;;;13.20;1.00;;;;;;5065429;28;20962;-71
2023/10/18 10:34:34;;;;;;;10.02;8.00;;;13.20;1.00;;;;;;5090256;28;20915;-72
2023/10/18 10:37:05;;;;;;;10.90;8.30;;;13.20;1.00;;;;;;5089384;28;20401;-72
2023/10/18 10:39:35;;;;;;;13.63;8.30;;;13.20;1.00;;;;;;5089596;28;20414;-72
2023/10/18 10:42:08;;;;;;;8.27;7.15;;;13.30;1.00;;;;;;5088615;28;20436;-72
2023/10/18 10:44:54;;;;;;;12.98;7.43;;;13.50;1.00;;;;;;5090489;28;20410;-72
2023/10/18 10:47:30;;;;;;;11.20;8.20;;;13.80;1.00;;;;;;5090275;28;20413;-72
2023/10/18 10:50:00;;;;;;;10.82;8.10;;;13.80;1.00;;;;;;5084013;28;20433;-72
2023/10/18 10:52:30;;;;;;;11.27;8.10;;;13.80;1.00;;;;;;5089888;28;20398;-72
2023/10/18 10:55:02;;;;;;;9.38;8.05;;;13.70;1.00;;;;;;5090302;28;20402;-72
2023/10/18 10:57:30;;;;;;;11.35;7.93;;;13.70;1.00;;;;;;5089960;28;20907;-72
2023/10/18 10:59:57;;;;;;;11.67;7.63;;;13.60;1.00;;;;;;5084224;28;20420;-72
2023/10/18 11:02:36;;;;;;;9.13;7.55;;;13.70;1.00;;;;;;5088571;28;20410;-72
2023/10/18 11:05:15;;;;;;;10.57;7.37;;;13.70;1.00;;;;;;5090066;28;21006;-72
2023/10/18 11:07:42;;;;;;;8.52;7.03;;;13.80;1.00;;;;;;5090248;28;20445;-71
2023/10/18 11:10:14;;;;;;;10.13;7.72;;;13.80;1.00;;;;;;5088539;28;20520;-71
2023/10/18 11:12:40;;;;;;;9.27;7.50;;;13.90;1.00;;;;;;5089470;28;20413;-71
2023/10/18 11:15:16;;;;;;;9.73;7.30;;;14.00;1.00;;;;;;5089871;28;20432;-71
2023/10/18 11:17:44;;;;;;;8.95;7.32;;;14.00;1.00;;;;;;5089622;28;21025;-71
2023/10/18 11:20:24;;;;;;;9.45;7.00;;;14.00;1.00;;;;;;5089350;28;20465;-71
2023/10/18 11:22:50;;;;;;;10.27;7.30;;;13.90;1.00;;;;;;5089532;28;20421;-71
2023/10/18 11:25:30;;;;;;;10.52;7.55;;;13.70;1.00;;;;;;5088252;28;20410;-71
2023/10/18 11:28:01;;;;;;;9.63;7.75;;;13.50;1.00;;;;;;5089631;28;20413;-71
2023/10/18 11:30:28;;;;;;;8.05;7.13;;;13.20;1.00;;;;;;5089302;28;20425;-71
2023/10/18 11:32:54;;;;;;;8.90;7.80;;;13.10;1.00;;;;;;5089743;28;20895;-71
2023/10/18 11:35:27;;;;;;;8.95;7.20;;;13.10;1.00;;;;;;5088788;28;20418;-70
2023/10/18 11:37:53;;;;;;;9.73;7.70;;;13.20;1.00;;;;;;5084997;28;20411;-71
2023/10/18 11:40:21;;;;;;;9.73;7.30;;;13.20;1.00;;;;;;5088935;28;20402;-71
2023/10/18 11:43:05;;;;;;;10.60;7.65;;;13.10;1.00;;;;;;5089191;28;20420;-70
2023/10/18 11:45:32;;;;;;;9.77;7.20;;;13.20;1.00;;;;;;5089369;28;20409;-71
2023/10/18 11:48:02;;;;;;;10.97;7.63;;;13.10;1.00;;;;;;5089073;28;20504;-71
2023/10/18 11:50:48;;;;;;;9.55;7.20;;;13.10;1.00;;;;;;5088735;28;20430;-71
2023/10/18 11:53:15;;;;;;;10.65;7.35;;;13.00;1.00;;;;;;5083931;28;20493;-71
2023/10/18 11:55:58;;;;;;;9.50;7.07;;;12.90;1.00;;;;;;5082555;28;20410;-70
2023/10/18 11:58:28;;;;;;;10.00;7.25;;;12.90;1.00;;;;;;5087738;28;20418;-71
2023/10/18 12:03:29;;;;;;;7.93;6.85;;;12.90;1.00;;;;;;5083196;28;20410;-71
2023/10/18 12:05:56;;;;;;;8.23;6.80;;;12.80;1.00;;;;;;5089268;28;20412;-71
2023/10/18 12:08:23;;;;;;;8.52;7.20;;;12.80;1.00;;;;;;5088913;28;20902;-71
2023/10/18 12:10:49;;;;;;;8.48;7.05;;;12.70;1.00;;;;;;5086913;28;20430;-71
2023/10/18 12:13:17;;;;;;;11.98;7.20;;;12.70;1.00;;;;;;5088202;28;20448;-71
2023/10/18 12:15:43;;;;;;;11.03;7.60;;;12.60;1.00;;;;;;5087462;28;20410;-71
2023/10/18 12:18:14;;;;;;;9.20;7.28;;;12.60;1.00;;;;;;5087953;28;20406;-71
2023/10/18 12:20:43;;;;;;;9.10;7.40;;;12.50;1.00;;;;;;5088773;28;20428;-71
2023/10/18 12:23:10;;;;;;;10.25;7.25;;;12.40;1.00;;;;;;5087255;28;20410;-71
2023/10/18 12:25:42;;;;;;;9.38;6.63;;;12.40;1.00;;;;;;5086756;28;21380;-71
2023/10/18 12:28:12;;;;;;;9.70;7.05;;;12.40;1.00;;;;;;5084200;28;20907;-71
2023/10/18 12:30:41;;;;;;;9.85;7.40;;;12.40;1.00;;;;;;5079583;28;20993;-71
2023/10/18 12:33:14;;;;;;;8.88;6.90;;;12.40;1.00;;;;;;5087199;28;20465;-71
2023/10/18 12:35:40;;;;;;;9.57;7.00;;;12.40;1.00;;;;;;5086635;28;20410;-71
2023/10/18 12:38:15;;;;;;;9.27;7.40;;;12.40;1.00;;;;;;5087871;28;20398;-71
2023/10/18 12:40:55;;;;;;;9.35;7.47;;;12.40;1.00;;;;;;5088057;28;20406;-71
2023/10/18 12:43:21;;;;;;;10.38;6.88;;;12.30;1.00;;;;;;5088539;28;20463;-71
2023/10/18 12:45:50;;;;;;;9.38;6.97;;;12.20;1.00;;;;;;5087832;28;20405;-71
2023/10/18 12:48:22;;;;;;;10.63;7.03;;;12.10;1.00;;;;;;5087685;28;20816;-71
2023/10/18 12:50:55;;;;;;;9.87;7.50;;;12.20;1.00;;;;;;5074864;28;20410;-71
2023/10/18 12:56:33;;;;;;;11.40;7.57;;;12.20;1.00;;;;;;5088104;28;20405;-71
2023/10/18 12:58:48;;;;;;;9.13;7.30;;;12.30;1.00;;;;;;5076570;28;20977;-71
2023/10/18 13:01:22;;;;;;;10.70;7.38;;;12.30;1.00;;;;;;5087442;28;20406;-71
2023/10/18 13:03:57;;;;;;;10.20;7.40;;;12.30;1.00;;;;;;5088022;28;20912;-71
2023/10/18 13:06:35;;;;;;;9.85;7.55;;;12.40;1.00;;;;;;5087110;28;20512;-71
2023/10/18 13:09:16;;;;;;;9.93;7.22;;;12.40;1.00;;;;;;5087563;28;20489;-71
2023/10/18 13:14:32;;;;;;;10.82;7.68;;;12.60;1.00;;;;;;5087927;28;20919;-71
2023/10/18 13:17:00;;;;;;;11.00;7.23;;;12.70;1.00;;;;;;5082778;28;20434;-71
2023/10/18 13:19:29;;;;;;;10.02;7.80;;;12.60;1.00;;;;;;5086685;28;20443;-71
2023/10/18 13:21:55;;;;;;;12.20;8.45;;;12.60;1.00;;;;;;5087644;28;20791;-71
2023/10/18 13:26:54;;;;;;;12.07;8.23;;;12.40;1.00;;;;;;5086889;28;20533;-73
2023/10/18 13:31:52;;;;;;;12.43;8.43;;;12.40;1.00;;;;;;5119931;28;20801;-73
2023/10/18 13:34:18;;;;;;;10.55;8.30;;;12.40;1.00;;;;;;5086876;28;20887;-73
2023/10/18 13:36:51;;;;;;;10.10;7.38;;;12.40;1.00;;;;;;5087986;28;20398;-73
2023/10/18 13:39:18;;;;;;;11.25;7.32;;;12.40;1.00;;;;;;5086832;28;20970;-73
2023/10/18 13:41:47;;;;;;;11.30;7.05;;;12.30;1.00;;;;;;5087941;28;20390;-73
2023/10/18 13:44:22;;;;;;;12.75;7.28;;;12.30;1.00;;;;;;5087668;28;20405;-73
2023/10/18 13:46:52;;;;;;;10.07;7.18;;;12.30;1.00;;;;;;5087470;28;20421;-73
2023/10/18 13:49:23;;;;;;;10.38;7.40;;;12.20;1.00;;;;;;5087840;28;20409;-73
2023/10/18 13:51:50;;;;;;;9.48;6.95;;;12.20;1.00;;;;;;5091156;28;20938;-73
2023/10/18 13:54:18;;;;;;;12.32;7.80;;;12.20;1.00;;;;;;5073287;28;20478;-73
2023/10/18 13:56:44;;;;;;;9.73;7.30;;;12.20;1.00;;;;;;5091219;28;20406;-73
2023/10/18 13:59:10;;;;;;;11.23;7.27;;;12.20;1.00;;;;;;5091032;28;20412;-73
2023/10/18 14:01:38;;;;;;;9.40;6.97;;;12.10;1.00;;;;;;5091123;28;20408;-73
2023/10/18 14:04:05;;;;;;;14.93;7.72;;;12.10;1.00;;;;;;5090751;28;20481;-74